首页
METAR-TAF:

METAR-TAF

机场 :

默特尔比奇, 南卡罗来纳州, 美国

纬度: 33-41N, 经度: 078-56W, 海拔: 8米

当前天气观测

该预报发布于40分钟前的10:21 UTC
风速16节,风向东北
温度 10°C
湿度 93%
气压 1016 hPa
能見度: 16.1公里
阴天层高于900英尺

METAR: KMYR 151021Z AUTO 04016KT 10SM RA OVC009 10/09 A3001 RMK AO2 CIG 008V013 P0000

时间: 06:01 (11:01 UTC)

预报

该预报发布于5小时和41分钟前的05:20 UTC
预报有效从15日的 06点(UTC)到 16日的 06点(UTC)
风速16节,风向东北
能見度: 9.7公里
阴天层高于1000英尺
小雨
从 15日的 1300点(UTC)
风速9节,风向东南
能見度: 3.2公里
阴天层高于1000英尺
大雨
从 15日的 1600点(UTC)
风速8节,风向西
能見度: 10公里
阴天层高于1000英尺
附近有阵雨
从 15日的 1800点(UTC)
风速11节,风向西
能見度: 10公里
阴天层高于1000英尺
从 15日的 2000点(UTC)
风速10节,风向西
能見度: 10公里
阴天层高于11000英尺
从 15日的 2200点(UTC)
风速10节,风向西
能見度: 10公里
多云层高于1000英尺
从 16日的 0100点(UTC)
风速11节,风向西
能見度: 10公里
多云层高于20000英尺

TAF: KMYR 150520Z 1506/1606 05016KT 6SM -RA OVC010 FM151300 14009KT 2SM +RA OVC010 FM151600 26008KT P6SM VCSH OVC010 FM151800 28011KT P6SM OVC010 FM152000 28010KT P6SM OVC110 FM152200 28010KT P6SM BKN010 FM160100 28011KT P6SM BKN200

超过4000个机场的气象观测和天气预报(METAR&TAF报告)。

可查询的气象台以黄色和红色小点在地图上表示。

将鼠标移到小点上方,可查看气象台名称。

然后点击查看天气观测和预报。

如需切换地图:点击带黑十字的绿色按钮放大地图;点击带横线的绿色按钮缩小地图;或者点击绿色箭头查看邻近地区的地图。


METAR-TAF: